sensor_id;sensor_type;location;lat;lon;timestamp;temperature;humidity
48043;DHT22;33988;47.992;8.820;2024-03-25T00:02:19;11.20;49.30
48043;DHT22;33988;47.992;8.820;2024-03-25T00:04:45;11.20;49.20
48043;DHT22;33988;47.992;8.820;2024-03-25T00:07:11;11.20;49.30
48043;DHT22;33988;47.992;8.820;2024-03-25T00:09:37;11.10;49.20
48043;DHT22;33988;47.992;8.820;2024-03-25T00:12:03;11.20;49.30
48043;DHT22;33988;47.992;8.820;2024-03-25T00:14:30;11.10;49.20
48043;DHT22;33988;47.992;8.820;2024-03-25T00:16:58;11.10;49.20
48043;DHT22;33988;47.992;8.820;2024-03-25T00:19:24;11.10;49.20
48043;DHT22;33988;47.992;8.820;2024-03-25T00:21:50;11.10;49.20
48043;DHT22;33988;47.992;8.820;2024-03-25T00:24:19;11.10;49.20
48043;DHT22;33988;47.992;8.820;2024-03-25T00:26:47;11.00;49.10
48043;DHT22;33988;47.992;8.820;2024-03-25T00:29:13;11.00;49.20
48043;DHT22;33988;47.992;8.820;2024-03-25T00:31:40;11.00;49.20
48043;DHT22;33988;47.992;8.820;2024-03-25T00:34:08;11.00;49.20
48043;DHT22;33988;47.992;8.820;2024-03-25T00:36:38;10.90;49.80
48043;DHT22;33988;47.992;8.820;2024-03-25T00:39:07;10.90;49.20
48043;DHT22;33988;47.992;8.820;2024-03-25T00:41:33;10.90;49.20
48043;DHT22;33988;47.992;8.820;2024-03-25T00:43:59;10.90;49.20
48043;DHT22;33988;47.992;8.820;2024-03-25T00:46:27;10.90;49.20
48043;DHT22;33988;47.992;8.820;2024-03-25T00:48:53;10.90;49.20
48043;DHT22;33988;47.992;8.820;2024-03-25T00:51:19;10.80;49.20
48043;DHT22;33988;47.992;8.820;2024-03-25T00:53:46;10.80;49.20
48043;DHT22;33988;47.992;8.820;2024-03-25T00:56:12;10.80;49.30
48043;DHT22;33988;47.992;8.820;2024-03-25T00:58:37;10.70;49.30
48043;DHT22;33988;47.992;8.820;2024-03-25T01:01:04;10.70;49.30
48043;DHT22;33988;47.992;8.820;2024-03-25T01:03:29;10.70;49.40
48043;DHT22;33988;47.992;8.820;2024-03-25T01:05:58;10.70;49.50
48043;DHT22;33988;47.992;8.820;2024-03-25T01:08:24;10.70;49.50
48043;DHT22;33988;47.992;8.820;2024-03-25T01:10:50;10.70;49.50
48043;DHT22;33988;47.992;8.820;2024-03-25T01:13:18;10.70;49.50
48043;DHT22;33988;47.992;8.820;2024-03-25T01:15:44;10.70;49.50
48043;DHT22;33988;47.992;8.820;2024-03-25T01:18:10;10.70;49.50
48043;DHT22;33988;47.992;8.820;2024-03-25T01:20:37;10.70;49.50
48043;DHT22;33988;47.992;8.820;2024-03-25T01:23:03;10.60;49.40
48043;DHT22;33988;47.992;8.820;2024-03-25T01:25:35;10.60;49.50
48043;DHT22;33988;47.992;8.820;2024-03-25T01:28:01;10.60;49.50
48043;DHT22;33988;47.992;8.820;2024-03-25T01:30:29;10.60;49.50
48043;DHT22;33988;47.992;8.820;2024-03-25T01:33:01;10.60;49.50
48043;DHT22;33988;47.992;8.820;2024-03-25T01:35:28;10.60;49.50
48043;DHT22;33988;47.992;8.820;2024-03-25T01:37:54;10.60;49.50
48043;DHT22;33988;47.992;8.820;2024-03-25T01:40:20;10.60;49.50
48043;DHT22;33988;47.992;8.820;2024-03-25T01:43:02;10.50;49.50
48043;DHT22;33988;47.992;8.820;2024-03-25T01:45:32;10.50;49.60
48043;DHT22;33988;47.992;8.820;2024-03-25T01:48:03;10.50;49.50
48043;DHT22;33988;47.992;8.820;2024-03-25T01:50:39;10.50;50.10
48043;DHT22;33988;47.992;8.820;2024-03-25T01:53:11;10.50;49.50
48043;DHT22;33988;47.992;8.820;2024-03-25T01:55:40;10.50;49.50
48043;DHT22;33988;47.992;8.820;2024-03-25T01:58:09;10.50;49.50
48043;DHT22;33988;47.992;8.820;2024-03-25T02:00:38;10.40;49.50
48043;DHT22;33988;47.992;8.820;2024-03-25T02:03:04;10.40;49.60
48043;DHT22;33988;47.992;8.820;2024-03-25T02:05:31;10.40;49.60
48043;DHT22;33988;47.992;8.820;2024-03-25T02:08:00;10.40;49.70
48043;DHT22;33988;47.992;8.820;2024-03-25T02:10:30;10.40;49.70
48043;DHT22;33988;47.992;8.820;2024-03-25T02:12:57;10.40;49.80
48043;DHT22;33988;47.992;8.820;2024-03-25T02:15:25;10.40;49.80
48043;DHT22;33988;47.992;8.820;2024-03-25T02:17:54;10.40;49.90
48043;DHT22;33988;47.992;8.820;2024-03-25T02:20:22;10.40;50.00
48043;DHT22;33988;47.992;8.820;2024-03-25T02:22:48;10.40;50.00
48043;DHT22;33988;47.992;8.820;2024-03-25T02:25:16;10.40;50.00
48043;DHT22;33988;47.992;8.820;2024-03-25T02:27:43;10.40;50.00
48043;DHT22;33988;47.992;8.820;2024-03-25T02:30:13;10.50;50.00
48043;DHT22;33988;47.992;8.820;2024-03-25T02:32:40;10.40;50.00
48043;DHT22;33988;47.992;8.820;2024-03-25T02:35:12;10.50;50.00
48043;DHT22;33988;47.992;8.820;2024-03-25T02:37:41;10.40;50.10
48043;DHT22;33988;47.992;8.820;2024-03-25T02:40:08;10.40;50.10
48043;DHT22;33988;47.992;8.820;2024-03-25T02:42:36;10.50;50.10
48043;DHT22;33988;47.992;8.820;2024-03-25T02:45:03;10.40;50.00
48043;DHT22;33988;47.992;8.820;2024-03-25T02:47:29;10.40;50.00
48043;DHT22;33988;47.992;8.820;2024-03-25T02:49:55;10.40;50.00
48043;DHT22;33988;47.992;8.820;2024-03-25T02:52:24;10.40;50.00
48043;DHT22;33988;47.992;8.820;2024-03-25T02:54:50;10.40;50.00
48043;DHT22;33988;47.992;8.820;2024-03-25T02:57:16;10.40;50.10
48043;DHT22;33988;47.992;8.820;2024-03-25T02:59:42;10.40;50.10
48043;DHT22;33988;47.992;8.820;2024-03-25T03:02:08;10.40;50.10
48043;DHT22;33988;47.992;8.820;2024-03-25T03:04:34;10.40;50.10
48043;DHT22;33988;47.992;8.820;2024-03-25T03:07:00;10.40;50.10
48043;DHT22;33988;47.992;8.820;2024-03-25T03:09:28;10.40;50.00
48043;DHT22;33988;47.992;8.820;2024-03-25T03:11:54;10.40;50.10
48043;DHT22;33988;47.992;8.820;2024-03-25T03:14:21;10.40;50.10
48043;DHT22;33988;47.992;8.820;2024-03-25T03:16:49;10.40;50.10
48043;DHT22;33988;47.992;8.820;2024-03-25T03:19:20;10.40;50.10
48043;DHT22;33988;47.992;8.820;2024-03-25T03:21:47;10.30;50.10
48043;DHT22;33988;47.992;8.820;2024-03-25T03:24:12;10.30;50.10
48043;DHT22;33988;47.992;8.820;2024-03-25T03:26:38;10.30;50.10
48043;DHT22;33988;47.992;8.820;2024-03-25T03:29:07;10.30;50.10
48043;DHT22;33988;47.992;8.820;2024-03-25T03:31:34;10.30;50.20
48043;DHT22;33988;47.992;8.820;2024-03-25T03:34:02;10.20;50.10
48043;DHT22;33988;47.992;8.820;2024-03-25T03:36:31;10.20;50.20
48043;DHT22;33988;47.992;8.820;2024-03-25T03:38:57;10.20;50.30
48043;DHT22;33988;47.992;8.820;2024-03-25T03:41:25;10.20;50.30
48043;DHT22;33988;47.992;8.820;2024-03-25T03:43:51;10.20;50.40
48043;DHT22;33988;47.992;8.820;2024-03-25T03:46:17;10.30;50.40
48043;DHT22;33988;47.992;8.820;2024-03-25T03:48:46;10.20;50.40
48043;DHT22;33988;47.992;8.820;2024-03-25T03:51:12;10.20;50.50
48043;DHT22;33988;47.992;8.820;2024-03-25T03:53:41;10.20;50.40
48043;DHT22;33988;47.992;8.820;2024-03-25T03:56:07;10.20;50.40
48043;DHT22;33988;47.992;8.820;2024-03-25T03:58:33;10.20;50.30
48043;DHT22;33988;47.992;8.820;2024-03-25T04:01:02;10.20;50.30
48043;DHT22;33988;47.992;8.820;2024-03-25T04:03:30;10.20;50.40
48043;DHT22;33988;47.992;8.820;2024-03-25T04:05:56;10.20;50.40
48043;DHT22;33988;47.992;8.820;2024-03-25T04:08:24;10.20;50.30
48043;DHT22;33988;47.992;8.820;2024-03-25T04:10:52;10.20;50.40
48043;DHT22;33988;47.992;8.820;2024-03-25T04:13:20;10.10;50.30
48043;DHT22;33988;47.992;8.820;2024-03-25T04:15:47;10.10;50.20
48043;DHT22;33988;47.992;8.820;2024-03-25T04:18:16;10.10;50.20
48043;DHT22;33988;47.992;8.820;2024-03-25T04:20:44;10.00;50.20
48043;DHT22;33988;47.992;8.820;2024-03-25T04:23:13;10.00;50.30
48043;DHT22;33988;47.992;8.820;2024-03-25T04:25:41;10.00;50.40
48043;DHT22;33988;47.992;8.820;2024-03-25T04:28:07;9.90;50.40
48043;DHT22;33988;47.992;8.820;2024-03-25T04:30:33;9.90;51.10
48043;DHT22;33988;47.992;8.820;2024-03-25T04:33:00;9.90;50.50
48043;DHT22;33988;47.992;8.820;2024-03-25T04:35:29;9.90;50.60
48043;DHT22;33988;47.992;8.820;2024-03-25T04:37:57;9.90;50.50
48043;DHT22;33988;47.992;8.820;2024-03-25T04:40:25;9.90;50.60
48043;DHT22;33988;47.992;8.820;2024-03-25T04:42:51;9.90;50.60
48043;DHT22;33988;47.992;8.820;2024-03-25T04:45:17;9.90;50.60
48043;DHT22;33988;47.992;8.820;2024-03-25T04:47:45;9.80;50.60
48043;DHT22;33988;47.992;8.820;2024-03-25T04:50:11;9.80;50.50
48043;DHT22;33988;47.992;8.820;2024-03-25T04:52:37;9.80;50.50
48043;DHT22;33988;47.992;8.820;2024-03-25T04:55:08;9.80;50.60
48043;DHT22;33988;47.992;8.820;2024-03-25T04:57:34;9.70;50.60
48043;DHT22;33988;47.992;8.820;2024-03-25T05:00:02;9.70;50.60
48043;DHT22;33988;47.992;8.820;2024-03-25T05:02:29;9.70;50.70
48043;DHT22;33988;47.992;8.820;2024-03-25T05:04:55;9.70;50.70
48043;DHT22;33988;47.992;8.820;2024-03-25T05:07:21;9.70;50.70
48043;DHT22;33988;47.992;8.820;2024-03-25T05:09:51;9.70;50.70
48043;DHT22;33988;47.992;8.820;2024-03-25T05:12:20;9.60;50.60
48043;DHT22;33988;47.992;8.820;2024-03-25T05:14:46;9.60;50.60
48043;DHT22;33988;47.992;8.820;2024-03-25T05:17:11;9.60;50.60
48043;DHT22;33988;47.992;8.820;2024-03-25T05:19:40;9.50;50.70
48043;DHT22;33988;47.992;8.820;2024-03-25T05:22:08;9.50;50.60
48043;DHT22;33988;47.992;8.820;2024-03-25T05:24:34;9.50;50.70
48043;DHT22;33988;47.992;8.820;2024-03-25T05:27:02;9.50;50.80
48043;DHT22;33988;47.992;8.820;2024-03-25T05:29:28;9.50;50.90
48043;DHT22;33988;47.992;8.820;2024-03-25T05:31:58;9.50;50.90
48043;DHT22;33988;47.992;8.820;2024-03-25T05:34:26;9.40;51.00
48043;DHT22;33988;47.992;8.820;2024-03-25T05:36:52;9.50;51.10
48043;DHT22;33988;47.992;8.820;2024-03-25T05:39:19;9.50;51.10
48043;DHT22;33988;47.992;8.820;2024-03-25T05:41:46;9.50;51.10
48043;DHT22;33988;47.992;8.820;2024-03-25T05:44:12;9.50;51.10
48043;DHT22;33988;47.992;8.820;2024-03-25T05:46:39;9.60;51.10
48043;DHT22;33988;47.992;8.820;2024-03-25T05:49:05;9.60;51.10
48043;DHT22;33988;47.992;8.820;2024-03-25T05:51:32;9.60;51.00
48043;DHT22;33988;47.992;8.820;2024-03-25T05:54:01;9.60;51.00
48043;DHT22;33988;47.992;8.820;2024-03-25T05:56:28;9.60;51.00
48043;DHT22;33988;47.992;8.820;2024-03-25T05:58:57;9.60;51.10
48043;DHT22;33988;47.992;8.820;2024-03-25T06:01:23;9.60;51.00
48043;DHT22;33988;47.992;8.820;2024-03-25T06:03:50;9.60;50.90
48043;DHT22;33988;47.992;8.820;2024-03-25T06:06:18;9.60;50.90
48043;DHT22;33988;47.992;8.820;2024-03-25T06:08:47;9.60;50.90
48043;DHT22;33988;47.992;8.820;2024-03-25T06:11:16;9.50;50.90
48043;DHT22;33988;47.992;8.820;2024-03-25T06:13:46;9.50;50.90
48043;DHT22;33988;47.992;8.820;2024-03-25T06:16:15;9.50;51.00
48043;DHT22;33988;47.992;8.820;2024-03-25T06:18:44;9.50;51.10
48043;DHT22;33988;47.992;8.820;2024-03-25T06:21:10;9.30;51.30
48043;DHT22;33988;47.992;8.820;2024-03-25T06:23:38;9.40;51.00
48043;DHT22;33988;47.992;8.820;2024-03-25T06:26:04;9.50;51.10
48043;DHT22;33988;47.992;8.820;2024-03-25T06:28:32;9.50;51.00
48043;DHT22;33988;47.992;8.820;2024-03-25T06:30:58;9.50;51.00
48043;DHT22;33988;47.992;8.820;2024-03-25T06:33:42;9.50;51.00
48043;DHT22;33988;47.992;8.820;2024-03-25T06:36:26;9.50;51.10
48043;DHT22;33988;47.992;8.820;2024-03-25T06:38:52;9.50;51.20
48043;DHT22;33988;47.992;8.820;2024-03-25T06:41:18;9.50;51.30
48043;DHT22;33988;47.992;8.820;2024-03-25T06:43:44;9.50;51.30
48043;DHT22;33988;47.992;8.820;2024-03-25T06:46:10;9.50;51.40
48043;DHT22;33988;47.992;8.820;2024-03-25T06:48:41;9.50;51.30
48043;DHT22;33988;47.992;8.820;2024-03-25T06:51:07;9.60;51.40
48043;DHT22;33988;47.992;8.820;2024-03-25T06:53:35;9.60;51.40
48043;DHT22;33988;47.992;8.820;2024-03-25T06:56:01;9.60;51.40
48043;DHT22;33988;47.992;8.820;2024-03-25T06:58:28;9.60;51.40
48043;DHT22;33988;47.992;8.820;2024-03-25T07:00:56;9.70;51.40
48043;DHT22;33988;47.992;8.820;2024-03-25T07:03:23;9.70;51.40
48043;DHT22;33988;47.992;8.820;2024-03-25T07:05:52;9.70;51.40
48043;DHT22;33988;47.992;8.820;2024-03-25T07:08:20;9.70;51.40
48043;DHT22;33988;47.992;8.820;2024-03-25T07:10:51;9.70;51.50
48043;DHT22;33988;47.992;8.820;2024-03-25T07:13:18;9.70;51.50
48043;DHT22;33988;47.992;8.820;2024-03-25T07:15:46;9.80;51.50
48043;DHT22;33988;47.992;8.820;2024-03-25T07:18:14;9.70;51.50
48043;DHT22;33988;47.992;8.820;2024-03-25T07:20:43;9.80;51.70
48043;DHT22;33988;47.992;8.820;2024-03-25T07:23:12;9.80;51.70
48043;DHT22;33988;47.992;8.820;2024-03-25T07:25:38;9.80;51.70
48043;DHT22;33988;47.992;8.820;2024-03-25T07:28:05;9.80;51.70
48043;DHT22;33988;47.992;8.820;2024-03-25T07:30:32;9.90;51.80
48043;DHT22;33988;47.992;8.820;2024-03-25T07:33:00;9.90;51.80
48043;DHT22;33988;47.992;8.820;2024-03-25T07:35:26;9.90;51.80
48043;DHT22;33988;47.992;8.820;2024-03-25T07:37:55;9.90;51.80
48043;DHT22;33988;47.992;8.820;2024-03-25T07:40:23;10.00;51.80
48043;DHT22;33988;47.992;8.820;2024-03-25T07:42:49;10.00;51.80
48043;DHT22;33988;47.992;8.820;2024-03-25T07:45:15;10.00;51.70
48043;DHT22;33988;47.992;8.820;2024-03-25T07:47:42;10.10;51.80
48043;DHT22;33988;47.992;8.820;2024-03-25T07:50:08;10.10;51.70
48043;DHT22;33988;47.992;8.820;2024-03-25T07:52:34;10.10;51.70
48043;DHT22;33988;47.992;8.820;2024-03-25T07:55:06;10.20;51.70
48043;DHT22;33988;47.992;8.820;2024-03-25T07:57:33;10.00;51.80
48043;DHT22;33988;47.992;8.820;2024-03-25T07:59:59;10.10;51.60
48043;DHT22;33988;47.992;8.820;2024-03-25T08:02:25;10.20;51.60
48043;DHT22;33988;47.992;8.820;2024-03-25T08:04:50;10.20;51.60
48043;DHT22;33988;47.992;8.820;2024-03-25T08:07:16;10.20;51.60
48043;DHT22;33988;47.992;8.820;2024-03-25T08:09:43;10.30;51.70
48043;DHT22;33988;47.992;8.820;2024-03-25T08:12:09;10.30;51.70
48043;DHT22;33988;47.992;8.820;2024-03-25T08:14:35;10.30;51.70
48043;DHT22;33988;47.992;8.820;2024-03-25T08:17:00;10.30;51.70
48043;DHT22;33988;47.992;8.820;2024-03-25T08:19:28;10.40;51.80
48043;DHT22;33988;47.992;8.820;2024-03-25T08:21:54;10.40;51.70
48043;DHT22;33988;47.992;8.820;2024-03-25T08:24:22;10.50;51.90
48043;DHT22;33988;47.992;8.820;2024-03-25T08:26:50;10.50;51.90
48043;DHT22;33988;47.992;8.820;2024-03-25T08:29:19;10.50;51.90
48043;DHT22;33988;47.992;8.820;2024-03-25T08:31:47;10.50;51.90
48043;DHT22;33988;47.992;8.820;2024-03-25T08:34:13;10.60;52.00
48043;DHT22;33988;47.992;8.820;2024-03-25T08:36:39;10.60;52.00
48043;DHT22;33988;47.992;8.820;2024-03-25T08:39:08;10.70;52.70
48043;DHT22;33988;47.992;8.820;2024-03-25T08:41:33;10.70;52.10
48043;DHT22;33988;47.992;8.820;2024-03-25T08:43:59;10.80;52.10
48043;DHT22;33988;47.992;8.820;2024-03-25T08:46:25;10.80;52.10
48043;DHT22;33988;47.992;8.820;2024-03-25T08:48:54;10.90;52.10
48043;DHT22;33988;47.992;8.820;2024-03-25T08:51:20;10.90;52.30
48043;DHT22;33988;47.992;8.820;2024-03-25T08:53:46;11.00;52.90
48043;DHT22;33988;47.992;8.820;2024-03-25T08:56:13;11.20;53.30
48043;DHT22;33988;47.992;8.820;2024-03-25T08:58:39;11.30;53.50
48043;DHT22;33988;47.992;8.820;2024-03-25T09:01:05;11.50;53.70
48043;DHT22;33988;47.992;8.820;2024-03-25T09:03:33;11.70;53.90
48043;DHT22;33988;47.992;8.820;2024-03-25T09:05:59;11.90;54.10
48043;DHT22;33988;47.992;8.820;2024-03-25T09:08:28;12.10;54.10
48043;DHT22;33988;47.992;8.820;2024-03-25T09:11:04;12.40;54.00
48043;DHT22;33988;47.992;8.820;2024-03-25T09:13:33;12.60;54.00
48043;DHT22;33988;47.992;8.820;2024-03-25T09:15:58;12.90;54.30
48043;DHT22;33988;47.992;8.820;2024-03-25T09:18:24;13.20;54.40
48043;DHT22;33988;47.992;8.820;2024-03-25T09:20:50;13.50;54.40
48043;DHT22;33988;47.992;8.820;2024-03-25T09:23:16;13.80;54.50
48043;DHT22;33988;47.992;8.820;2024-03-25T09:25:55;14.20;54.20
48043;DHT22;33988;47.992;8.820;2024-03-25T09:28:23;14.50;53.50
48043;DHT22;33988;47.992;8.820;2024-03-25T09:30:49;14.90;53.50
48043;DHT22;33988;47.992;8.820;2024-03-25T09:33:15;15.20;53.10
48043;DHT22;33988;47.992;8.820;2024-03-25T09:35:44;15.60;52.80
48043;DHT22;33988;47.992;8.820;2024-03-25T09:38:12;15.90;52.50
48043;DHT22;33988;47.992;8.820;2024-03-25T09:40:43;16.30;52.10
48043;DHT22;33988;47.992;8.820;2024-03-25T09:43:20;16.60;51.50
48043;DHT22;33988;47.992;8.820;2024-03-25T09:45:52;16.90;50.40
48043;DHT22;33988;47.992;8.820;2024-03-25T09:48:22;17.20;49.70
48043;DHT22;33988;47.992;8.820;2024-03-25T09:50:49;17.40;48.90
48043;DHT22;33988;47.992;8.820;2024-03-25T09:53:16;17.50;48.10
48043;DHT22;33988;47.992;8.820;2024-03-25T09:55:42;17.60;47.30
48043;DHT22;33988;47.992;8.820;2024-03-25T09:58:11;17.70;46.90
48043;DHT22;33988;47.992;8.820;2024-03-25T10:00:37;17.70;46.80
48043;DHT22;33988;47.992;8.820;2024-03-25T10:03:03;17.80;46.90
48043;DHT22;33988;47.992;8.820;2024-03-25T10:05:29;17.90;46.80
48043;DHT22;33988;47.992;8.820;2024-03-25T10:07:55;18.00;46.50
48043;DHT22;33988;47.992;8.820;2024-03-25T10:10:26;18.00;46.30
48043;DHT22;33988;47.992;8.820;2024-03-25T10:12:58;18.10;46.10
48043;DHT22;33988;47.992;8.820;2024-03-25T10:15:27;18.20;45.60
48043;DHT22;33988;47.992;8.820;2024-03-25T10:17:53;18.30;45.40
48043;DHT22;33988;47.992;8.820;2024-03-25T10:20:24;18.40;45.10
48043;DHT22;33988;47.992;8.820;2024-03-25T10:22:53;18.50;44.80
48043;DHT22;33988;47.992;8.820;2024-03-25T10:25:22;18.70;44.10
48043;DHT22;33988;47.992;8.820;2024-03-25T10:27:58;18.70;42.80
48043;DHT22;33988;47.992;8.820;2024-03-25T10:30:29;18.80;42.30
48043;DHT22;33988;47.992;8.820;2024-03-25T10:33:07;18.80;41.80
48043;DHT22;33988;47.992;8.820;2024-03-25T10:35:37;18.80;40.40
48043;DHT22;33988;47.992;8.820;2024-03-25T10:38:05;18.80;40.40
48043;DHT22;33988;47.992;8.820;2024-03-25T10:40:37;18.90;40.40
48043;DHT22;33988;47.992;8.820;2024-03-25T10:45:49;19.00;40.10
48043;DHT22;33988;47.992;8.820;2024-03-25T10:50:51;19.30;39.30
48043;DHT22;33988;47.992;8.820;2024-03-25T10:53:21;19.40;39.30
48043;DHT22;33988;47.992;8.820;2024-03-25T10:55:54;19.40;39.10
48043;DHT22;33988;47.992;8.820;2024-03-25T10:58:22;19.50;38.80
48043;DHT22;33988;47.992;8.820;2024-03-25T11:00:52;19.50;38.70
48043;DHT22;33988;47.992;8.820;2024-03-25T11:03:25;19.50;38.50
48043;DHT22;33988;47.992;8.820;2024-03-25T11:05:54;19.50;38.30
48043;DHT22;33988;47.992;8.820;2024-03-25T11:08:20;19.50;38.40
48043;DHT22;33988;47.992;8.820;2024-03-25T11:10:55;19.50;38.40
48043;DHT22;33988;47.992;8.820;2024-03-25T11:13:27;19.50;38.30
48043;DHT22;33988;47.992;8.820;2024-03-25T11:15:53;19.50;38.10
48043;DHT22;33988;47.992;8.820;2024-03-25T11:18:22;19.40;38.30
48043;DHT22;33988;47.992;8.820;2024-03-25T11:23:46;19.50;37.50
48043;DHT22;33988;47.992;8.820;2024-03-25T11:26:24;19.50;37.60
48043;DHT22;33988;47.992;8.820;2024-03-25T11:28:51;19.40;37.30
48043;DHT22;33988;47.992;8.820;2024-03-25T11:31:25;19.50;37.60
48043;DHT22;33988;47.992;8.820;2024-03-25T11:33:52;19.50;37.50
48043;DHT22;33988;47.992;8.820;2024-03-25T11:36:18;19.50;37.60
48043;DHT22;33988;47.992;8.820;2024-03-25T11:38:46;19.50;37.50
48043;DHT22;33988;47.992;8.820;2024-03-25T11:41:25;19.60;37.50
48043;DHT22;33988;47.992;8.820;2024-03-25T11:43:51;19.60;37.30
48043;DHT22;33988;47.992;8.820;2024-03-25T11:46:19;19.60;37.40
48043;DHT22;33988;47.992;8.820;2024-03-25T11:48:45;19.60;37.70
48043;DHT22;33988;47.992;8.820;2024-03-25T11:51:13;19.60;37.30
48043;DHT22;33988;47.992;8.820;2024-03-25T11:53:44;19.60;37.00
48043;DHT22;33988;47.992;8.820;2024-03-25T11:56:15;19.50;36.70
48043;DHT22;33988;47.992;8.820;2024-03-25T11:58:41;19.50;36.40
48043;DHT22;33988;47.992;8.820;2024-03-25T12:01:09;19.40;35.80
48043;DHT22;33988;47.992;8.820;2024-03-25T12:03:35;19.30;35.60
48043;DHT22;33988;47.992;8.820;2024-03-25T12:06:02;19.30;35.80
48043;DHT22;33988;47.992;8.820;2024-03-25T12:08:31;19.20;35.90
48043;DHT22;33988;47.992;8.820;2024-03-25T12:11:00;19.20;36.10
48043;DHT22;33988;47.992;8.820;2024-03-25T12:13:44;19.10;36.10
48043;DHT22;33988;47.992;8.820;2024-03-25T12:16:13;19.10;36.20
48043;DHT22;33988;47.992;8.820;2024-03-25T12:18:42;19.10;36.10
48043;DHT22;33988;47.992;8.820;2024-03-25T12:21:10;19.10;36.10
48043;DHT22;33988;47.992;8.820;2024-03-25T12:23:37;19.10;36.30
48043;DHT22;33988;47.992;8.820;2024-03-25T12:26:06;19.10;36.50
48043;DHT22;33988;47.992;8.820;2024-03-25T12:28:33;19.10;36.40
48043;DHT22;33988;47.992;8.820;2024-03-25T12:31:02;19.10;36.30
48043;DHT22;33988;47.992;8.820;2024-03-25T12:33:29;19.10;36.20
48043;DHT22;33988;47.992;8.820;2024-03-25T12:35:55;19.10;36.20
48043;DHT22;33988;47.992;8.820;2024-03-25T12:38:28;19.10;36.20
48043;DHT22;33988;47.992;8.820;2024-03-25T12:41:12;19.10;35.90
48043;DHT22;33988;47.992;8.820;2024-03-25T12:43:45;19.10;36.20
48043;DHT22;33988;47.992;8.820;2024-03-25T12:46:11;19.20;36.00
48043;DHT22;33988;47.992;8.820;2024-03-25T12:48:38;19.20;35.90
48043;DHT22;33988;47.992;8.820;2024-03-25T12:51:14;19.10;35.80
48043;DHT22;33988;47.992;8.820;2024-03-25T12:53:43;19.10;35.40
48043;DHT22;33988;47.992;8.820;2024-03-25T12:56:09;19.10;35.50
48043;DHT22;33988;47.992;8.820;2024-03-25T12:58:37;19.10;35.50
48043;DHT22;33988;47.992;8.820;2024-03-25T13:01:03;19.10;35.30
48043;DHT22;33988;47.992;8.820;2024-03-25T13:03:29;19.10;35.30
48043;DHT22;33988;47.992;8.820;2024-03-25T13:05:55;19.00;35.50
48043;DHT22;33988;47.992;8.820;2024-03-25T13:08:26;19.00;35.30
48043;DHT22;33988;47.992;8.820;2024-03-25T13:10:52;19.00;35.10
48043;DHT22;33988;47.992;8.820;2024-03-25T13:13:20;19.00;34.80
48043;DHT22;33988;47.992;8.820;2024-03-25T13:15:46;19.00;35.00
48043;DHT22;33988;47.992;8.820;2024-03-25T13:18:12;18.90;34.70
48043;DHT22;33988;47.992;8.820;2024-03-25T13:20:38;18.90;34.70
48043;DHT22;33988;47.992;8.820;2024-03-25T13:23:04;18.90;34.80
48043;DHT22;33988;47.992;8.820;2024-03-25T13:25:32;18.90;35.00
48043;DHT22;33988;47.992;8.820;2024-03-25T13:27:58;18.90;35.00
48043;DHT22;33988;47.992;8.820;2024-03-25T13:30:26;18.90;35.20
48043;DHT22;33988;47.992;8.820;2024-03-25T13:32:53;18.90;35.20
48043;DHT22;33988;47.992;8.820;2024-03-25T13:35:22;18.90;35.20
48043;DHT22;33988;47.992;8.820;2024-03-25T13:37:51;18.90;35.30
48043;DHT22;33988;47.992;8.820;2024-03-25T13:40:19;18.90;35.40
48043;DHT22;33988;47.992;8.820;2024-03-25T13:42:47;18.90;35.50
48043;DHT22;33988;47.992;8.820;2024-03-25T13:45:13;18.90;35.40
48043;DHT22;33988;47.992;8.820;2024-03-25T13:47:39;18.90;35.20
48043;DHT22;33988;47.992;8.820;2024-03-25T13:50:06;18.90;35.00
48043;DHT22;33988;47.992;8.820;2024-03-25T13:52:36;18.80;35.10
48043;DHT22;33988;47.992;8.820;2024-03-25T13:55:03;18.80;35.20
48043;DHT22;33988;47.992;8.820;2024-03-25T13:57:31;18.80;34.80
48043;DHT22;33988;47.992;8.820;2024-03-25T13:59:57;18.80;34.60
48043;DHT22;33988;47.992;8.820;2024-03-25T14:02:25;18.70;34.40
48043;DHT22;33988;47.992;8.820;2024-03-25T14:04:54;18.70;34.40
48043;DHT22;33988;47.992;8.820;2024-03-25T14:07:20;18.60;34.30
48043;DHT22;33988;47.992;8.820;2024-03-25T14:09:46;18.60;34.30
48043;DHT22;33988;47.992;8.820;2024-03-25T14:12:12;18.50;34.20
48043;DHT22;33988;47.992;8.820;2024-03-25T14:14:37;18.50;34.70
48043;DHT22;33988;47.992;8.820;2024-03-25T14:17:04;18.40;34.10
48043;DHT22;33988;47.992;8.820;2024-03-25T14:19:30;18.40;34.20
48043;DHT22;33988;47.992;8.820;2024-03-25T14:21:56;18.30;34.40
48043;DHT22;33988;47.992;8.820;2024-03-25T14:24:23;18.30;34.50
48043;DHT22;33988;47.992;8.820;2024-03-25T14:26:48;18.30;34.50
48043;DHT22;33988;47.992;8.820;2024-03-25T14:29:14;18.30;34.60
48043;DHT22;33988;47.992;8.820;2024-03-25T14:31:40;18.30;34.70
48043;DHT22;33988;47.992;8.820;2024-03-25T14:34:09;18.30;34.90
48043;DHT22;33988;47.992;8.820;2024-03-25T14:36:34;18.30;34.90
48043;DHT22;33988;47.992;8.820;2024-03-25T14:39:01;18.40;35.00
48043;DHT22;33988;47.992;8.820;2024-03-25T14:41:41;18.40;35.00
48043;DHT22;33988;47.992;8.820;2024-03-25T14:44:07;18.40;35.00
48043;DHT22;33988;47.992;8.820;2024-03-25T14:46:33;18.40;35.00
48043;DHT22;33988;47.992;8.820;2024-03-25T14:48:59;18.40;35.00
48043;DHT22;33988;47.992;8.820;2024-03-25T14:51:25;18.40;35.00
48043;DHT22;33988;47.992;8.820;2024-03-25T14:53:51;18.40;35.00
48043;DHT22;33988;47.992;8.820;2024-03-25T14:56:17;18.40;35.10
48043;DHT22;33988;47.992;8.820;2024-03-25T14:58:46;18.40;35.00
48043;DHT22;33988;47.992;8.820;2024-03-25T15:01:12;18.40;35.00
48043;DHT22;33988;47.992;8.820;2024-03-25T15:03:38;18.40;35.00
48043;DHT22;33988;47.992;8.820;2024-03-25T15:06:06;18.40;35.00
48043;DHT22;33988;47.992;8.820;2024-03-25T15:08:32;18.40;35.00
48043;DHT22;33988;47.992;8.820;2024-03-25T15:10:59;18.40;34.70
48043;DHT22;33988;47.992;8.820;2024-03-25T15:13:25;18.40;34.50
48043;DHT22;33988;47.992;8.820;2024-03-25T15:15:51;18.30;34.60
48043;DHT22;33988;47.992;8.820;2024-03-25T15:18:19;18.30;34.70
48043;DHT22;33988;47.992;8.820;2024-03-25T15:20:47;18.30;34.70
48043;DHT22;33988;47.992;8.820;2024-03-25T15:23:13;18.20;34.70
48043;DHT22;33988;47.992;8.820;2024-03-25T15:25:42;18.20;34.50
48043;DHT22;33988;47.992;8.820;2024-03-25T15:28:08;18.20;34.40
48043;DHT22;33988;47.992;8.820;2024-03-25T15:30:36;18.20;34.20
48043;DHT22;33988;47.992;8.820;2024-03-25T15:33:02;18.10;33.80
48043;DHT22;33988;47.992;8.820;2024-03-25T15:35:28;18.00;33.70
48043;DHT22;33988;47.992;8.820;2024-03-25T15:37:56;18.00;33.80
48043;DHT22;33988;47.992;8.820;2024-03-25T15:40:24;17.90;33.80
48043;DHT22;33988;47.992;8.820;2024-03-25T15:42:50;17.90;33.90
48043;DHT22;33988;47.992;8.820;2024-03-25T15:45:16;17.80;33.90
48043;DHT22;33988;47.992;8.820;2024-03-25T15:47:42;17.70;34.00